sensor_id;sensor_type;location;lat;lon;timestamp;P1;durP1;ratioP1;P2;durP2;ratioP2
49710;SDS011;35602;44.534;18.696;2023-05-23T00:00:20;12.27;;;11.02;;
49710;SDS011;35602;44.534;18.696;2023-05-23T00:05:21;12.52;;;11.23;;
49710;SDS011;35602;44.534;18.696;2023-05-23T00:10:23;11.68;;;10.48;;
49710;SDS011;35602;44.534;18.696;2023-05-23T00:15:24;12.35;;;11.15;;
49710;SDS011;35602;44.534;18.696;2023-05-23T00:20:25;12.00;;;10.80;;
49710;SDS011;35602;44.534;18.696;2023-05-23T00:25:25;11.30;;;10.23;;
49710;SDS011;35602;44.534;18.696;2023-05-23T00:30:33;12.30;;;11.10;;
49710;SDS011;35602;44.534;18.696;2023-05-23T00:35:33;12.52;;;11.32;;
49710;SDS011;35602;44.534;18.696;2023-05-23T00:40:34;10.43;;;9.43;;
49710;SDS011;35602;44.534;18.696;2023-05-23T00:45:35;11.00;;;9.93;;
49710;SDS011;35602;44.534;18.696;2023-05-23T00:50:36;11.50;;;10.40;;
49710;SDS011;35602;44.534;18.696;2023-05-23T00:55:37;11.68;;;10.57;;
49710;SDS011;35602;44.534;18.696;2023-05-23T01:00:38;11.23;;;10.13;;
49710;SDS011;35602;44.534;18.696;2023-05-23T01:05:39;11.10;;;10.07;;
49710;SDS011;35602;44.534;18.696;2023-05-23T01:10:40;12.10;;;10.90;;
49710;SDS011;35602;44.534;18.696;2023-05-23T01:15:44;10.68;;;9.63;;
49710;SDS011;35602;44.534;18.696;2023-05-23T01:20:52;10.68;;;9.68;;
49710;SDS011;35602;44.534;18.696;2023-05-23T01:26:12;10.52;;;9.55;;
49710;SDS011;35602;44.534;18.696;2023-05-23T01:31:38;11.20;;;10.10;;
49710;SDS011;35602;44.534;18.696;2023-05-23T01:36:48;11.52;;;10.43;;
49710;SDS011;35602;44.534;18.696;2023-05-23T01:41:52;10.65;;;9.65;;
49710;SDS011;35602;44.534;18.696;2023-05-23T01:46:53;11.27;;;10.18;;
49710;SDS011;35602;44.534;18.696;2023-05-23T01:51:54;11.43;;;10.35;;
49710;SDS011;35602;44.534;18.696;2023-05-23T01:56:56;11.10;;;10.00;;
49710;SDS011;35602;44.534;18.696;2023-05-23T02:01:57;10.77;;;9.70;;
49710;SDS011;35602;44.534;18.696;2023-05-23T02:06:58;10.68;;;9.60;;
49710;SDS011;35602;44.534;18.696;2023-05-23T02:11:59;10.50;;;9.50;;
49710;SDS011;35602;44.534;18.696;2023-05-23T02:17:00;10.13;;;9.07;;
49710;SDS011;35602;44.534;18.696;2023-05-23T02:22:01;10.20;;;9.15;;
49710;SDS011;35602;44.534;18.696;2023-05-23T02:27:02;10.82;;;9.82;;
49710;SDS011;35602;44.534;18.696;2023-05-23T02:32:03;9.60;;;8.70;;
49710;SDS011;35602;44.534;18.696;2023-05-23T02:37:05;10.30;;;9.30;;
49710;SDS011;35602;44.534;18.696;2023-05-23T02:42:05;10.05;;;9.07;;
49710;SDS011;35602;44.534;18.696;2023-05-23T02:47:06;10.23;;;9.23;;
49710;SDS011;35602;44.534;18.696;2023-05-23T02:52:07;9.93;;;8.93;;
49710;SDS011;35602;44.534;18.696;2023-05-23T02:57:08;9.98;;;9.07;;
49710;SDS011;35602;44.534;18.696;2023-05-23T03:02:09;9.25;;;8.40;;
49710;SDS011;35602;44.534;18.696;2023-05-23T03:07:10;9.93;;;9.02;;
49710;SDS011;35602;44.534;18.696;2023-05-23T03:12:13;9.38;;;8.48;;
49710;SDS011;35602;44.534;18.696;2023-05-23T03:17:14;9.93;;;8.95;;
49710;SDS011;35602;44.534;18.696;2023-05-23T03:22:15;9.75;;;8.85;;
49710;SDS011;35602;44.534;18.696;2023-05-23T03:27:16;9.73;;;8.82;;
49710;SDS011;35602;44.534;18.696;2023-05-23T03:32:17;9.65;;;8.75;;
49710;SDS011;35602;44.534;18.696;2023-05-23T03:37:17;9.45;;;8.55;;
49710;SDS011;35602;44.534;18.696;2023-05-23T03:42:18;8.90;;;8.10;;
49710;SDS011;35602;44.534;18.696;2023-05-23T03:47:19;9.90;;;9.00;;
49710;SDS011;35602;44.534;18.696;2023-05-23T03:52:20;9.77;;;8.88;;
49710;SDS011;35602;44.534;18.696;2023-05-23T03:57:21;9.80;;;8.85;;
49710;SDS011;35602;44.534;18.696;2023-05-23T04:02:22;9.18;;;8.27;;
49710;SDS011;35602;44.534;18.696;2023-05-23T04:07:23;9.27;;;8.38;;
49710;SDS011;35602;44.534;18.696;2023-05-23T04:12:25;10.10;;;8.70;;
49710;SDS011;35602;44.534;18.696;2023-05-23T04:17:26;9.45;;;8.55;;
49710;SDS011;35602;44.534;18.696;2023-05-23T04:22:28;9.45;;;8.55;;
49710;SDS011;35602;44.534;18.696;2023-05-23T04:27:29;9.35;;;8.48;;
49710;SDS011;35602;44.534;18.696;2023-05-23T04:32:30;8.73;;;7.93;;
49710;SDS011;35602;44.534;18.696;2023-05-23T04:37:31;9.45;;;8.63;;
49710;SDS011;35602;44.534;18.696;2023-05-23T04:42:32;8.60;;;7.80;;
49710;SDS011;35602;44.534;18.696;2023-05-23T04:47:33;9.07;;;8.18;;
49710;SDS011;35602;44.534;18.696;2023-05-23T04:52:34;9.00;;;8.10;;
49710;SDS011;35602;44.534;18.696;2023-05-23T04:57:34;9.50;;;8.13;;
49710;SDS011;35602;44.534;18.696;2023-05-23T05:02:36;8.60;;;7.80;;
49710;SDS011;35602;44.534;18.696;2023-05-23T05:07:38;8.93;;;8.13;;
49710;SDS011;35602;44.534;18.696;2023-05-23T05:12:39;9.50;;;8.50;;
49710;SDS011;35602;44.534;18.696;2023-05-23T05:17:40;8.68;;;7.80;;
49710;SDS011;35602;44.534;18.696;2023-05-23T05:22:42;8.93;;;8.02;;
49710;SDS011;35602;44.534;18.696;2023-05-23T05:27:43;9.52;;;8.63;;
49710;SDS011;35602;44.534;18.696;2023-05-23T05:32:44;9.98;;;8.32;;
49710;SDS011;35602;44.534;18.696;2023-05-23T05:37:46;9.13;;;8.32;;
49710;SDS011;35602;44.534;18.696;2023-05-23T05:42:47;9.40;;;8.45;;
49710;SDS011;35602;44.534;18.696;2023-05-23T05:47:48;9.60;;;8.20;;
49710;SDS011;35602;44.534;18.696;2023-05-23T05:52:49;8.65;;;7.85;;
49710;SDS011;35602;44.534;18.696;2023-05-23T05:57:50;9.32;;;8.40;;
49710;SDS011;35602;44.534;18.696;2023-05-23T06:02:51;9.00;;;8.20;;
49710;SDS011;35602;44.534;18.696;2023-05-23T06:07:54;9.80;;;8.25;;
49710;SDS011;35602;44.534;18.696;2023-05-23T06:12:54;9.18;;;8.27;;
49710;SDS011;35602;44.534;18.696;2023-05-23T06:17:55;9.35;;;8.13;;
49710;SDS011;35602;44.534;18.696;2023-05-23T06:22:56;8.95;;;8.07;;
49710;SDS011;35602;44.534;18.696;2023-05-23T06:27:59;9.75;;;8.75;;
49710;SDS011;35602;44.534;18.696;2023-05-23T06:33:00;9.10;;;8.30;;
49710;SDS011;35602;44.534;18.696;2023-05-23T06:38:01;9.55;;;8.65;;
49710;SDS011;35602;44.534;18.696;2023-05-23T06:43:02;9.65;;;8.73;;
49710;SDS011;35602;44.534;18.696;2023-05-23T06:48:04;10.20;;;9.20;;
49710;SDS011;35602;44.534;18.696;2023-05-23T06:53:05;9.77;;;8.77;;
49710;SDS011;35602;44.534;18.696;2023-05-23T06:58:06;9.45;;;8.50;;
49710;SDS011;35602;44.534;18.696;2023-05-23T07:03:06;10.43;;;9.23;;
49710;SDS011;35602;44.534;18.696;2023-05-23T07:08:07;10.27;;;9.15;;
49710;SDS011;35602;44.534;18.696;2023-05-23T07:13:10;10.70;;;9.48;;
49710;SDS011;35602;44.534;18.696;2023-05-23T07:18:10;9.45;;;8.55;;
49710;SDS011;35602;44.534;18.696;2023-05-23T07:23:12;10.15;;;8.48;;
49710;SDS011;35602;44.534;18.696;2023-05-23T07:28:12;9.82;;;8.90;;
49710;SDS011;35602;44.534;18.696;2023-05-23T07:33:13;9.95;;;8.98;;
49710;SDS011;35602;44.534;18.696;2023-05-23T07:38:14;10.32;;;9.20;;
49710;SDS011;35602;44.534;18.696;2023-05-23T07:43:15;9.50;;;8.50;;
49710;SDS011;35602;44.534;18.696;2023-05-23T07:48:18;10.43;;;8.68;;
49710;SDS011;35602;44.534;18.696;2023-05-23T07:53:20;11.07;;;9.00;;
49710;SDS011;35602;44.534;18.696;2023-05-23T07:58:21;9.93;;;8.93;;
49710;SDS011;35602;44.534;18.696;2023-05-23T08:03:25;10.05;;;9.02;;
49710;SDS011;35602;44.534;18.696;2023-05-23T08:08:26;10.80;;;9.70;;
49710;SDS011;35602;44.534;18.696;2023-05-23T08:13:27;10.48;;;9.35;;
49710;SDS011;35602;44.534;18.696;2023-05-23T08:18:28;11.07;;;9.40;;
49710;SDS011;35602;44.534;18.696;2023-05-23T08:23:29;9.95;;;8.88;;
49710;SDS011;35602;44.534;18.696;2023-05-23T08:28:30;10.23;;;9.23;;
49710;SDS011;35602;44.534;18.696;2023-05-23T08:33:33;9.63;;;8.63;;
49710;SDS011;35602;44.534;18.696;2023-05-23T08:38:34;9.40;;;8.50;;
49710;SDS011;35602;44.534;18.696;2023-05-23T08:43:35;10.02;;;9.07;;
49710;SDS011;35602;44.534;18.696;2023-05-23T08:48:37;9.43;;;8.52;;
49710;SDS011;35602;44.534;18.696;2023-05-23T08:53:41;11.45;;;9.23;;
49710;SDS011;35602;44.534;18.696;2023-05-23T08:58:48;10.25;;;9.20;;
49710;SDS011;35602;44.534;18.696;2023-05-23T09:03:52;10.00;;;9.00;;
49710;SDS011;35602;44.534;18.696;2023-05-23T09:08:53;9.80;;;8.80;;
49710;SDS011;35602;44.534;18.696;2023-05-23T09:13:55;9.35;;;8.45;;
49710;SDS011;35602;44.534;18.696;2023-05-23T09:18:56;9.82;;;8.93;;
49710;SDS011;35602;44.534;18.696;2023-05-23T09:23:57;10.32;;;9.23;;
49710;SDS011;35602;44.534;18.696;2023-05-23T09:28:58;9.15;;;8.25;;
49710;SDS011;35602;44.534;18.696;2023-05-23T09:33:59;9.57;;;8.68;;
49710;SDS011;35602;44.534;18.696;2023-05-23T09:39:03;10.25;;;9.25;;
49710;SDS011;35602;44.534;18.696;2023-05-23T09:44:05;10.23;;;9.23;;
49710;SDS011;35602;44.534;18.696;2023-05-23T09:49:14;10.05;;;9.02;;
49710;SDS011;35602;44.534;18.696;2023-05-23T09:54:21;10.60;;;9.50;;
49710;SDS011;35602;44.534;18.696;2023-05-23T09:59:22;10.68;;;9.57;;
49710;SDS011;35602;44.534;18.696;2023-05-23T10:04:30;10.13;;;8.82;;
49710;SDS011;35602;44.534;18.696;2023-05-23T10:09:35;10.18;;;9.18;;
49710;SDS011;35602;44.534;18.696;2023-05-23T10:14:39;10.57;;;9.48;;
49710;SDS011;35602;44.534;18.696;2023-05-23T10:25:07;11.00;;;9.90;;
49710;SDS011;35602;44.534;18.696;2023-05-23T10:30:12;11.35;;;10.10;;
49710;SDS011;35602;44.534;18.696;2023-05-23T10:35:56;11.27;;;10.07;;
49710;SDS011;35602;44.534;18.696;2023-05-23T10:41:10;11.20;;;9.13;;
49710;SDS011;35602;44.534;18.696;2023-05-23T10:46:18;13.27;;;10.27;;
49710;SDS011;35602;44.534;18.696;2023-05-23T10:51:22;10.90;;;9.80;;
49710;SDS011;35602;44.534;18.696;2023-05-23T10:56:23;11.32;;;10.13;;
49710;SDS011;35602;44.534;18.696;2023-05-23T11:01:25;11.65;;;10.43;;
49710;SDS011;35602;44.534;18.696;2023-05-23T11:06:42;11.32;;;10.05;;
49710;SDS011;35602;44.534;18.696;2023-05-23T11:11:53;12.45;;;10.57;;
49710;SDS011;35602;44.534;18.696;2023-05-23T11:17:14;11.10;;;10.00;;
49710;SDS011;35602;44.534;18.696;2023-05-23T11:22:16;12.82;;;11.05;;
49710;SDS011;35602;44.534;18.696;2023-05-23T11:27:31;13.73;;;10.75;;
49710;SDS011;35602;44.534;18.696;2023-05-23T11:32:37;13.38;;;10.77;;
49710;SDS011;35602;44.534;18.696;2023-05-23T11:37:38;11.60;;;10.50;;
49710;SDS011;35602;44.534;18.696;2023-05-23T11:42:42;12.55;;;11.25;;
49710;SDS011;35602;44.534;18.696;2023-05-23T11:47:42;12.32;;;10.57;;
49710;SDS011;35602;44.534;18.696;2023-05-23T11:52:43;12.43;;;11.12;;
49710;SDS011;35602;44.534;18.696;2023-05-23T11:57:50;14.10;;;10.98;;
49710;SDS011;35602;44.534;18.696;2023-05-23T12:02:51;16.15;;;11.38;;
49710;SDS011;35602;44.534;18.696;2023-05-23T12:07:52;12.13;;;10.93;;
49710;SDS011;35602;44.534;18.696;2023-05-23T12:12:53;13.07;;;10.98;;
49710;SDS011;35602;44.534;18.696;2023-05-23T12:17:54;13.80;;;10.95;;
49710;SDS011;35602;44.534;18.696;2023-05-23T12:22:55;13.40;;;11.25;;
49710;SDS011;35602;44.534;18.696;2023-05-23T12:27:56;12.45;;;11.12;;
49710;SDS011;35602;44.534;18.696;2023-05-23T12:32:57;14.80;;;11.55;;
49710;SDS011;35602;44.534;18.696;2023-05-23T12:37:58;14.15;;;11.68;;
49710;SDS011;35602;44.534;18.696;2023-05-23T12:42:59;13.62;;;11.60;;
49710;SDS011;35602;44.534;18.696;2023-05-23T12:48:00;13.77;;;11.25;;
49710;SDS011;35602;44.534;18.696;2023-05-23T12:53:02;15.73;;;11.55;;
49710;SDS011;35602;44.534;18.696;2023-05-23T12:58:03;15.15;;;12.05;;
49710;SDS011;35602;44.534;18.696;2023-05-23T13:03:04;15.68;;;12.05;;
49710;SDS011;35602;44.534;18.696;2023-05-23T13:08:05;12.32;;;10.82;;
49710;SDS011;35602;44.534;18.696;2023-05-23T13:13:06;15.77;;;11.93;;
49710;SDS011;35602;44.534;18.696;2023-05-23T13:18:07;16.67;;;12.35;;
49710;SDS011;35602;44.534;18.696;2023-05-23T13:23:08;15.50;;;11.80;;
49710;SDS011;35602;44.534;18.696;2023-05-23T13:28:09;14.02;;;12.13;;
49710;SDS011;35602;44.534;18.696;2023-05-23T13:33:10;13.90;;;11.23;;
49710;SDS011;35602;44.534;18.696;2023-05-23T13:38:10;14.85;;;12.85;;
49710;SDS011;35602;44.534;18.696;2023-05-23T13:43:11;13.25;;;11.77;;
49710;SDS011;35602;44.534;18.696;2023-05-23T13:48:12;13.98;;;12.30;;
49710;SDS011;35602;44.534;18.696;2023-05-23T13:53:13;16.20;;;11.80;;
49710;SDS011;35602;44.534;18.696;2023-05-23T13:58:15;14.45;;;11.80;;
49710;SDS011;35602;44.534;18.696;2023-05-23T14:03:16;14.82;;;12.37;;
49710;SDS011;35602;44.534;18.696;2023-05-23T14:08:18;16.00;;;12.20;;
49710;SDS011;35602;44.534;18.696;2023-05-23T14:13:19;17.15;;;12.10;;
49710;SDS011;35602;44.534;18.696;2023-05-23T14:18:20;13.93;;;11.80;;
49710;SDS011;35602;44.534;18.696;2023-05-23T14:23:30;13.10;;;11.75;;
49710;SDS011;35602;44.534;18.696;2023-05-23T14:28:34;14.70;;;12.37;;
49710;SDS011;35602;44.534;18.696;2023-05-23T14:33:36;14.25;;;12.63;;
49710;SDS011;35602;44.534;18.696;2023-05-23T14:38:37;14.07;;;12.43;;
49710;SDS011;35602;44.534;18.696;2023-05-23T14:43:38;14.93;;;13.30;;
49710;SDS011;35602;44.534;18.696;2023-05-23T14:48:39;14.32;;;12.50;;
49710;SDS011;35602;44.534;18.696;2023-05-23T14:53:41;14.80;;;13.25;;
49710;SDS011;35602;44.534;18.696;2023-05-23T14:58:42;14.95;;;13.45;;
49710;SDS011;35602;44.534;18.696;2023-05-23T15:03:44;13.85;;;12.45;;
49710;SDS011;35602;44.534;18.696;2023-05-23T15:08:45;14.93;;;13.13;;
49710;SDS011;35602;44.534;18.696;2023-05-23T15:13:46;15.45;;;12.73;;
49710;SDS011;35602;44.534;18.696;2023-05-23T15:18:47;14.35;;;12.80;;
49710;SDS011;35602;44.534;18.696;2023-05-23T15:23:48;14.20;;;12.70;;
49710;SDS011;35602;44.534;18.696;2023-05-23T15:28:49;16.25;;;13.40;;
49710;SDS011;35602;44.534;18.696;2023-05-23T15:33:50;15.30;;;13.70;;
49710;SDS011;35602;44.534;18.696;2023-05-23T15:38:51;14.80;;;13.35;;
49710;SDS011;35602;44.534;18.696;2023-05-23T15:43:52;16.35;;;13.73;;
49710;SDS011;35602;44.534;18.696;2023-05-23T15:48:53;15.98;;;13.82;;
49710;SDS011;35602;44.534;18.696;2023-05-23T15:53:58;15.90;;;13.55;;
49710;SDS011;35602;44.534;18.696;2023-05-23T15:58:59;15.77;;;14.07;;
49710;SDS011;35602;44.534;18.696;2023-05-23T16:04:00;15.85;;;14.18;;
49710;SDS011;35602;44.534;18.696;2023-05-23T16:09:01;17.55;;;14.48;;
49710;SDS011;35602;44.534;18.696;2023-05-23T16:14:01;15.98;;;14.27;;
49710;SDS011;35602;44.534;18.696;2023-05-23T16:19:02;15.00;;;13.50;;
49710;SDS011;35602;44.534;18.696;2023-05-23T16:24:04;15.70;;;14.10;;
49710;SDS011;35602;44.534;18.696;2023-05-23T16:29:05;16.77;;;14.87;;
49710;SDS011;35602;44.534;18.696;2023-05-23T16:34:07;16.62;;;14.55;;
49710;SDS011;35602;44.534;18.696;2023-05-23T16:39:07;17.20;;;15.32;;
49710;SDS011;35602;44.534;18.696;2023-05-23T16:44:08;16.92;;;14.73;;
49710;SDS011;35602;44.534;18.696;2023-05-23T16:49:09;16.60;;;14.82;;
49710;SDS011;35602;44.534;18.696;2023-05-23T16:54:10;17.10;;;15.40;;
49710;SDS011;35602;44.534;18.696;2023-05-23T16:59:11;17.75;;;15.85;;
49710;SDS011;35602;44.534;18.696;2023-05-23T17:04:12;16.92;;;15.13;;
49710;SDS011;35602;44.534;18.696;2023-05-23T17:09:13;18.95;;;15.65;;
49710;SDS011;35602;44.534;18.696;2023-05-23T17:14:14;17.10;;;15.35;;
49710;SDS011;35602;44.534;18.696;2023-05-23T17:19:15;17.83;;;16.02;;
49710;SDS011;35602;44.534;18.696;2023-05-23T17:24:16;18.35;;;16.40;;
49710;SDS011;35602;44.534;18.696;2023-05-23T17:29:17;18.15;;;16.20;;
49710;SDS011;35602;44.534;18.696;2023-05-23T17:34:19;18.12;;;16.20;;
49710;SDS011;35602;44.534;18.696;2023-05-23T17:39:20;17.80;;;16.00;;
49710;SDS011;35602;44.534;18.696;2023-05-23T17:44:21;17.98;;;16.10;;
49710;SDS011;35602;44.534;18.696;2023-05-23T17:49:22;18.50;;;16.55;;
49710;SDS011;35602;44.534;18.696;2023-05-23T17:54:23;19.25;;;16.80;;
49710;SDS011;35602;44.534;18.696;2023-05-23T17:59:24;17.48;;;15.68;;
49710;SDS011;35602;44.534;18.696;2023-05-23T18:04:26;18.33;;;16.42;;
49710;SDS011;35602;44.534;18.696;2023-05-23T18:09:27;18.58;;;16.58;;
49710;SDS011;35602;44.534;18.696;2023-05-23T18:14:28;18.40;;;16.50;;
49710;SDS011;35602;44.534;18.696;2023-05-23T18:19:29;18.67;;;15.70;;
49710;SDS011;35602;44.534;18.696;2023-05-23T18:24:30;18.10;;;16.23;;
49710;SDS011;35602;44.534;18.696;2023-05-23T18:29:31;18.48;;;16.58;;
49710;SDS011;35602;44.534;18.696;2023-05-23T18:34:32;17.95;;;16.02;;
49710;SDS011;35602;44.534;18.696;2023-05-23T18:39:32;18.05;;;16.25;;
49710;SDS011;35602;44.534;18.696;2023-05-23T18:44:33;17.85;;;16.15;;
49710;SDS011;35602;44.534;18.696;2023-05-23T18:49:34;18.85;;;16.85;;
49710;SDS011;35602;44.534;18.696;2023-05-23T18:54:37;19.15;;;17.15;;
49710;SDS011;35602;44.534;18.696;2023-05-23T18:59:37;18.10;;;16.27;;
49710;SDS011;35602;44.534;18.696;2023-05-23T19:04:38;16.87;;;15.07;;
49710;SDS011;35602;44.534;18.696;2023-05-23T19:09:39;18.52;;;16.62;;
49710;SDS011;35602;44.534;18.696;2023-05-23T19:14:40;18.15;;;16.25;;
49710;SDS011;35602;44.534;18.696;2023-05-23T19:19:41;17.70;;;15.80;;
49710;SDS011;35602;44.534;18.696;2023-05-23T19:24:42;17.85;;;16.05;;
49710;SDS011;35602;44.534;18.696;2023-05-23T19:29:43;18.62;;;16.60;;
49710;SDS011;35602;44.534;18.696;2023-05-23T19:34:44;18.00;;;16.20;;
49710;SDS011;35602;44.534;18.696;2023-05-23T19:39:45;18.10;;;16.20;;
49710;SDS011;35602;44.534;18.696;2023-05-23T19:44:48;17.60;;;15.75;;
49710;SDS011;35602;44.534;18.696;2023-05-23T19:49:50;16.90;;;15.23;;
49710;SDS011;35602;44.534;18.696;2023-05-23T19:54:51;16.65;;;14.95;;
49710;SDS011;35602;44.534;18.696;2023-05-23T19:59:51;17.85;;;16.05;;
49710;SDS011;35602;44.534;18.696;2023-05-23T20:04:52;17.62;;;15.82;;
49710;SDS011;35602;44.534;18.696;2023-05-23T20:09:53;17.45;;;15.57;;
49710;SDS011;35602;44.534;18.696;2023-05-23T20:14:55;17.98;;;15.50;;
49710;SDS011;35602;44.534;18.696;2023-05-23T20:19:56;18.12;;;16.33;;
49710;SDS011;35602;44.534;18.696;2023-05-23T20:24:57;17.45;;;15.60;;
49710;SDS011;35602;44.534;18.696;2023-05-23T20:29:59;16.52;;;14.85;;
49710;SDS011;35602;44.534;18.696;2023-05-23T20:35:00;17.23;;;15.27;;
49710;SDS011;35602;44.534;18.696;2023-05-23T20:40:01;20.08;;;15.85;;
49710;SDS011;35602;44.534;18.696;2023-05-23T20:45:05;16.58;;;14.85;;
49710;SDS011;35602;44.534;18.696;2023-05-23T20:50:09;17.48;;;15.68;;
49710;SDS011;35602;44.534;18.696;2023-05-23T20:55:11;16.10;;;14.50;;
49710;SDS011;35602;44.534;18.696;2023-05-23T21:00:13;17.12;;;15.35;;
49710;SDS011;35602;44.534;18.696;2023-05-23T21:05:15;15.70;;;14.15;;
49710;SDS011;35602;44.534;18.696;2023-05-23T21:10:15;17.83;;;15.20;;
49710;SDS011;35602;44.534;18.696;2023-05-23T21:15:16;16.15;;;14.50;;
49710;SDS011;35602;44.534;18.696;2023-05-23T21:20:18;16.05;;;14.45;;
49710;SDS011;35602;44.534;18.696;2023-05-23T21:25:20;15.93;;;14.32;;
49710;SDS011;35602;44.534;18.696;2023-05-23T21:30:21;16.67;;;14.87;;
49710;SDS011;35602;44.534;18.696;2023-05-23T21:35:22;15.60;;;14.10;;
49710;SDS011;35602;44.534;18.696;2023-05-23T21:40:22;16.08;;;14.38;;
49710;SDS011;35602;44.534;18.696;2023-05-23T21:45:24;15.85;;;14.18;;
49710;SDS011;35602;44.534;18.696;2023-05-23T21:50:25;20.23;;;15.10;;
49710;SDS011;35602;44.534;18.696;2023-05-23T21:55:26;16.67;;;14.93;;
49710;SDS011;35602;44.534;18.696;2023-05-23T22:00:30;15.75;;;14.18;;
49710;SDS011;35602;44.534;18.696;2023-05-23T22:05:31;15.80;;;14.05;;
49710;SDS011;35602;44.534;18.696;2023-05-23T22:10:32;15.77;;;14.18;;
49710;SDS011;35602;44.534;18.696;2023-05-23T22:15:35;15.15;;;13.65;;
49710;SDS011;35602;44.534;18.696;2023-05-23T22:20:36;15.02;;;13.50;;
49710;SDS011;35602;44.534;18.696;2023-05-23T22:25:37;16.58;;;14.90;;
49710;SDS011;35602;44.534;18.696;2023-05-23T22:30:38;16.48;;;14.77;;
49710;SDS011;35602;44.534;18.696;2023-05-23T22:35:39;15.20;;;13.60;;
49710;SDS011;35602;44.534;18.696;2023-05-23T22:40:40;15.18;;;13.57;;
49710;SDS011;35602;44.534;18.696;2023-05-23T22:45:44;15.35;;;13.75;;
49710;SDS011;35602;44.534;18.696;2023-05-23T22:50:45;16.08;;;14.38;;
49710;SDS011;35602;44.534;18.696;2023-05-23T22:55:46;15.80;;;14.30;;
49710;SDS011;35602;44.534;18.696;2023-05-23T23:00:48;16.20;;;14.60;;
49710;SDS011;35602;44.534;18.696;2023-05-23T23:05:49;15.90;;;14.30;;
49710;SDS011;35602;44.534;18.696;2023-05-23T23:10:50;14.87;;;13.30;;
49710;SDS011;35602;44.534;18.696;2023-05-23T23:15:50;15.55;;;13.77;;
49710;SDS011;35602;44.534;18.696;2023-05-23T23:20:51;15.45;;;13.82;;
49710;SDS011;35602;44.534;18.696;2023-05-23T23:25:53;14.63;;;13.18;;
49710;SDS011;35602;44.534;18.696;2023-05-23T23:30:55;14.80;;;13.40;;
49710;SDS011;35602;44.534;18.696;2023-05-23T23:35:55;14.05;;;12.68;;
49710;SDS011;35602;44.534;18.696;2023-05-23T23:40:57;14.80;;;13.30;;
49710;SDS011;35602;44.534;18.696;2023-05-23T23:45:58;15.82;;;14.27;;
49710;SDS011;35602;44.534;18.696;2023-05-23T23:50:59;14.43;;;13.02;;
49710;SDS011;35602;44.534;18.696;2023-05-23T23:56:00;15.13;;;13.60;;
